sensor_id;sensor_type;location;lat;lon;timestamp;temperature;humidity
17128;DHT22;8679;50.842;4.322;2023-10-13T00:01:54;18.40;99.90
17128;DHT22;8679;50.842;4.322;2023-10-13T00:04:23;18.30;99.90
17128;DHT22;8679;50.842;4.322;2023-10-13T00:06:54;18.40;99.90
17128;DHT22;8679;50.842;4.322;2023-10-13T00:09:26;18.30;99.90
17128;DHT22;8679;50.842;4.322;2023-10-13T00:11:58;18.40;99.90
17128;DHT22;8679;50.842;4.322;2023-10-13T00:14:24;18.30;99.90
17128;DHT22;8679;50.842;4.322;2023-10-13T00:17:03;18.30;99.90
17128;DHT22;8679;50.842;4.322;2023-10-13T00:19:38;18.30;99.90
17128;DHT22;8679;50.842;4.322;2023-10-13T00:22:11;18.30;99.90
17128;DHT22;8679;50.842;4.322;2023-10-13T00:24:43;18.30;99.90
17128;DHT22;8679;50.842;4.322;2023-10-13T00:27:10;18.30;99.90
17128;DHT22;8679;50.842;4.322;2023-10-13T00:29:51;18.30;99.90
17128;DHT22;8679;50.842;4.322;2023-10-13T00:32:19;18.30;99.90
17128;DHT22;8679;50.842;4.322;2023-10-13T00:34:52;18.30;99.90
17128;DHT22;8679;50.842;4.322;2023-10-13T00:37:21;18.30;99.90
17128;DHT22;8679;50.842;4.322;2023-10-13T00:39:53;18.30;99.90
17128;DHT22;8679;50.842;4.322;2023-10-13T00:42:22;18.30;99.90
17128;DHT22;8679;50.842;4.322;2023-10-13T00:45:14;18.40;99.90
17128;DHT22;8679;50.842;4.322;2023-10-13T00:47:43;18.30;99.90
17128;DHT22;8679;50.842;4.322;2023-10-13T00:50:16;18.30;99.90
17128;DHT22;8679;50.842;4.322;2023-10-13T00:52:44;18.30;99.90
17128;DHT22;8679;50.842;4.322;2023-10-13T00:55:13;18.40;99.90
17128;DHT22;8679;50.842;4.322;2023-10-13T00:57:40;18.40;99.90
17128;DHT22;8679;50.842;4.322;2023-10-13T01:00:07;18.30;99.90
17128;DHT22;8679;50.842;4.322;2023-10-13T01:02:49;18.40;99.90
17128;DHT22;8679;50.842;4.322;2023-10-13T01:05:22;18.30;99.90
17128;DHT22;8679;50.842;4.322;2023-10-13T01:07:49;18.40;99.90
17128;DHT22;8679;50.842;4.322;2023-10-13T01:10:20;18.40;99.90
17128;DHT22;8679;50.842;4.322;2023-10-13T01:12:49;18.30;99.90
17128;DHT22;8679;50.842;4.322;2023-10-13T01:15:18;18.30;99.90
17128;DHT22;8679;50.842;4.322;2023-10-13T01:17:46;18.40;99.90
17128;DHT22;8679;50.842;4.322;2023-10-13T01:20:14;18.40;99.90
17128;DHT22;8679;50.842;4.322;2023-10-13T01:23:03;18.40;99.90
17128;DHT22;8679;50.842;4.322;2023-10-13T01:25:29;18.50;99.90
17128;DHT22;8679;50.842;4.322;2023-10-13T01:27:55;18.50;99.90
17128;DHT22;8679;50.842;4.322;2023-10-13T01:30:20;18.50;99.90
17128;DHT22;8679;50.842;4.322;2023-10-13T01:32:53;18.50;99.90
17128;DHT22;8679;50.842;4.322;2023-10-13T01:35:20;18.50;99.90
17128;DHT22;8679;50.842;4.322;2023-10-13T01:37:51;18.50;99.90
17128;DHT22;8679;50.842;4.322;2023-10-13T01:40:17;18.50;99.90
17128;DHT22;8679;50.842;4.322;2023-10-13T01:42:46;18.50;99.90
17128;DHT22;8679;50.842;4.322;2023-10-13T01:45:12;18.50;99.90
17128;DHT22;8679;50.842;4.322;2023-10-13T01:47:39;18.50;99.90
17128;DHT22;8679;50.842;4.322;2023-10-13T01:50:06;18.50;99.90
17128;DHT22;8679;50.842;4.322;2023-10-13T01:52:40;18.50;99.90
17128;DHT22;8679;50.842;4.322;2023-10-13T01:55:08;18.50;99.90
17128;DHT22;8679;50.842;4.322;2023-10-13T01:57:36;18.50;99.90
17128;DHT22;8679;50.842;4.322;2023-10-13T02:00:01;18.50;99.90
17128;DHT22;8679;50.842;4.322;2023-10-13T02:02:36;18.50;99.90
17128;DHT22;8679;50.842;4.322;2023-10-13T02:05:10;18.40;99.90
17128;DHT22;8679;50.842;4.322;2023-10-13T02:07:36;18.40;99.90
17128;DHT22;8679;50.842;4.322;2023-10-13T02:10:05;18.50;99.90
17128;DHT22;8679;50.842;4.322;2023-10-13T02:12:31;18.50;99.90
17128;DHT22;8679;50.842;4.322;2023-10-13T02:15:10;18.50;99.90
17128;DHT22;8679;50.842;4.322;2023-10-13T02:17:45;18.50;99.90
17128;DHT22;8679;50.842;4.322;2023-10-13T02:20:17;18.50;99.90
17128;DHT22;8679;50.842;4.322;2023-10-13T02:22:49;18.60;99.90
17128;DHT22;8679;50.842;4.322;2023-10-13T02:25:19;18.50;99.90
17128;DHT22;8679;50.842;4.322;2023-10-13T02:28:04;18.50;99.90
17128;DHT22;8679;50.842;4.322;2023-10-13T02:30:43;18.50;99.90
17128;DHT22;8679;50.842;4.322;2023-10-13T02:33:14;18.60;99.90
17128;DHT22;8679;50.842;4.322;2023-10-13T02:35:46;18.60;99.90
17128;DHT22;8679;50.842;4.322;2023-10-13T02:38:24;18.60;99.90
17128;DHT22;8679;50.842;4.322;2023-10-13T02:40:56;18.60;99.90
17128;DHT22;8679;50.842;4.322;2023-10-13T02:43:23;18.60;99.90
17128;DHT22;8679;50.842;4.322;2023-10-13T02:45:52;18.60;99.90
17128;DHT22;8679;50.842;4.322;2023-10-13T02:48:25;18.60;99.90
17128;DHT22;8679;50.842;4.322;2023-10-13T02:50:59;18.60;99.90
17128;DHT22;8679;50.842;4.322;2023-10-13T02:53:31;18.60;99.90
17128;DHT22;8679;50.842;4.322;2023-10-13T02:55:56;18.60;99.90
17128;DHT22;8679;50.842;4.322;2023-10-13T02:58:23;18.60;99.90
17128;DHT22;8679;50.842;4.322;2023-10-13T03:01:06;18.60;99.90
17128;DHT22;8679;50.842;4.322;2023-10-13T03:03:58;18.60;99.90
17128;DHT22;8679;50.842;4.322;2023-10-13T03:06:25;18.60;99.90
17128;DHT22;8679;50.842;4.322;2023-10-13T03:09:06;18.60;99.90
17128;DHT22;8679;50.842;4.322;2023-10-13T03:11:48;18.60;99.90
17128;DHT22;8679;50.842;4.322;2023-10-13T03:14:21;18.60;99.90
17128;DHT22;8679;50.842;4.322;2023-10-13T03:16:58;18.60;99.90
17128;DHT22;8679;50.842;4.322;2023-10-13T03:19:30;18.60;99.90
17128;DHT22;8679;50.842;4.322;2023-10-13T03:22:03;18.60;99.90
17128;DHT22;8679;50.842;4.322;2023-10-13T03:24:35;18.60;99.90
17128;DHT22;8679;50.842;4.322;2023-10-13T03:27:04;18.60;99.90
17128;DHT22;8679;50.842;4.322;2023-10-13T03:29:43;18.60;99.90
17128;DHT22;8679;50.842;4.322;2023-10-13T03:34:47;18.50;99.90
17128;DHT22;8679;50.842;4.322;2023-10-13T03:37:25;18.60;99.90
17128;DHT22;8679;50.842;4.322;2023-10-13T03:42:45;18.60;99.90
17128;DHT22;8679;50.842;4.322;2023-10-13T03:45:27;18.60;99.90
17128;DHT22;8679;50.842;4.322;2023-10-13T03:47:54;18.50;99.90
17128;DHT22;8679;50.842;4.322;2023-10-13T03:50:20;18.50;99.90
17128;DHT22;8679;50.842;4.322;2023-10-13T03:52:55;18.50;99.90
17128;DHT22;8679;50.842;4.322;2023-10-13T03:55:24;18.50;99.90
17128;DHT22;8679;50.842;4.322;2023-10-13T03:57:53;18.50;99.90
17128;DHT22;8679;50.842;4.322;2023-10-13T04:00:23;18.50;99.90
17128;DHT22;8679;50.842;4.322;2023-10-13T04:02:51;18.50;99.90
17128;DHT22;8679;50.842;4.322;2023-10-13T04:05:33;18.50;99.90
17128;DHT22;8679;50.842;4.322;2023-10-13T04:08:05;18.60;99.90
17128;DHT22;8679;50.842;4.322;2023-10-13T04:10:52;18.60;99.90
17128;DHT22;8679;50.842;4.322;2023-10-13T04:13:18;18.60;99.90
17128;DHT22;8679;50.842;4.322;2023-10-13T04:16:03;18.60;99.90
17128;DHT22;8679;50.842;4.322;2023-10-13T04:18:48;18.60;99.90
17128;DHT22;8679;50.842;4.322;2023-10-13T04:21:20;18.60;99.90
17128;DHT22;8679;50.842;4.322;2023-10-13T04:24:12;18.60;99.90
17128;DHT22;8679;50.842;4.322;2023-10-13T04:26:44;18.60;99.90
17128;DHT22;8679;50.842;4.322;2023-10-13T04:29:30;18.60;99.90
17128;DHT22;8679;50.842;4.322;2023-10-13T04:32:17;18.60;99.90
17128;DHT22;8679;50.842;4.322;2023-10-13T04:35:04;18.50;99.90
17128;DHT22;8679;50.842;4.322;2023-10-13T04:37:38;18.50;99.90
17128;DHT22;8679;50.842;4.322;2023-10-13T04:40:18;18.50;99.90
17128;DHT22;8679;50.842;4.322;2023-10-13T04:42:46;18.50;99.90
17128;DHT22;8679;50.842;4.322;2023-10-13T04:45:18;18.60;99.90
17128;DHT22;8679;50.842;4.322;2023-10-13T04:48:04;18.60;99.90
17128;DHT22;8679;50.842;4.322;2023-10-13T04:50:44;18.60;99.90
17128;DHT22;8679;50.842;4.322;2023-10-13T04:53:17;18.60;99.90
17128;DHT22;8679;50.842;4.322;2023-10-13T04:55:59;18.60;99.90
17128;DHT22;8679;50.842;4.322;2023-10-13T04:58:33;18.60;99.90
17128;DHT22;8679;50.842;4.322;2023-10-13T05:01:00;18.60;99.90
17128;DHT22;8679;50.842;4.322;2023-10-13T05:03:54;18.60;99.90
17128;DHT22;8679;50.842;4.322;2023-10-13T05:06:38;18.60;99.90
17128;DHT22;8679;50.842;4.322;2023-10-13T05:09:07;18.60;99.90
17128;DHT22;8679;50.842;4.322;2023-10-13T05:11:51;18.60;99.90
17128;DHT22;8679;50.842;4.322;2023-10-13T05:14:35;18.70;99.90
17128;DHT22;8679;50.842;4.322;2023-10-13T05:17:20;18.70;99.90
17128;DHT22;8679;50.842;4.322;2023-10-13T05:20:04;18.70;99.90
17128;DHT22;8679;50.842;4.322;2023-10-13T05:22:48;18.70;99.90
17128;DHT22;8679;50.842;4.322;2023-10-13T05:25:36;18.70;99.90
17128;DHT22;8679;50.842;4.322;2023-10-13T05:28:21;18.70;99.90
17128;DHT22;8679;50.842;4.322;2023-10-13T05:31:09;18.70;99.90
17128;DHT22;8679;50.842;4.322;2023-10-13T05:33:53;18.70;99.90
17128;DHT22;8679;50.842;4.322;2023-10-13T05:36:37;18.70;99.90
17128;DHT22;8679;50.842;4.322;2023-10-13T05:39:23;18.70;99.90
17128;DHT22;8679;50.842;4.322;2023-10-13T05:42:07;18.80;99.90
17128;DHT22;8679;50.842;4.322;2023-10-13T05:44:52;18.80;99.90
17128;DHT22;8679;50.842;4.322;2023-10-13T05:47:36;18.80;99.90
17128;DHT22;8679;50.842;4.322;2023-10-13T05:50:11;18.80;99.90
17128;DHT22;8679;50.842;4.322;2023-10-13T05:52:50;18.70;99.90
17128;DHT22;8679;50.842;4.322;2023-10-13T05:55:25;18.80;99.90
17128;DHT22;8679;50.842;4.322;2023-10-13T05:58:10;18.80;99.90
17128;DHT22;8679;50.842;4.322;2023-10-13T06:00:55;18.80;99.90
17128;DHT22;8679;50.842;4.322;2023-10-13T06:03:39;18.80;99.90
17128;DHT22;8679;50.842;4.322;2023-10-13T06:06:23;18.80;99.90
17128;DHT22;8679;50.842;4.322;2023-10-13T06:09:07;18.80;99.90
17128;DHT22;8679;50.842;4.322;2023-10-13T06:11:52;18.90;99.90
17128;DHT22;8679;50.842;4.322;2023-10-13T06:14:36;18.90;99.90
17128;DHT22;8679;50.842;4.322;2023-10-13T06:17:20;18.90;99.90
17128;DHT22;8679;50.842;4.322;2023-10-13T06:20:05;19.00;99.90
17128;DHT22;8679;50.842;4.322;2023-10-13T06:22:50;19.00;99.90
17128;DHT22;8679;50.842;4.322;2023-10-13T06:25:34;19.00;99.90
17128;DHT22;8679;50.842;4.322;2023-10-13T06:28:19;19.00;99.90
17128;DHT22;8679;50.842;4.322;2023-10-13T06:31:05;19.00;99.90
17128;DHT22;8679;50.842;4.322;2023-10-13T06:33:34;19.10;99.90
17128;DHT22;8679;50.842;4.322;2023-10-13T06:36:04;19.10;99.90
17128;DHT22;8679;50.842;4.322;2023-10-13T06:38:35;19.10;99.90
17128;DHT22;8679;50.842;4.322;2023-10-13T06:41:07;19.20;99.90
17128;DHT22;8679;50.842;4.322;2023-10-13T06:43:36;19.20;99.90
17128;DHT22;8679;50.842;4.322;2023-10-13T06:46:11;19.20;99.90
17128;DHT22;8679;50.842;4.322;2023-10-13T06:48:41;19.30;99.90
17128;DHT22;8679;50.842;4.322;2023-10-13T06:51:07;19.30;99.90
17128;DHT22;8679;50.842;4.322;2023-10-13T06:53:59;19.30;99.90
17128;DHT22;8679;50.842;4.322;2023-10-13T06:56:28;19.40;99.90
17128;DHT22;8679;50.842;4.322;2023-10-13T06:58:58;19.40;99.90
17128;DHT22;8679;50.842;4.322;2023-10-13T07:01:30;19.40;99.90
17128;DHT22;8679;50.842;4.322;2023-10-13T07:04:05;19.50;99.90
17128;DHT22;8679;50.842;4.322;2023-10-13T07:06:39;19.50;99.90
17128;DHT22;8679;50.842;4.322;2023-10-13T07:09:08;19.50;99.90
17128;DHT22;8679;50.842;4.322;2023-10-13T07:11:40;19.50;99.90
17128;DHT22;8679;50.842;4.322;2023-10-13T07:14:08;19.60;99.90
17128;DHT22;8679;50.842;4.322;2023-10-13T07:16:57;19.60;99.90
17128;DHT22;8679;50.842;4.322;2023-10-13T07:19:27;19.70;99.90
17128;DHT22;8679;50.842;4.322;2023-10-13T07:22:00;19.70;99.90
17128;DHT22;8679;50.842;4.322;2023-10-13T07:24:44;19.80;99.90
17128;DHT22;8679;50.842;4.322;2023-10-13T07:27:20;19.80;99.90
17128;DHT22;8679;50.842;4.322;2023-10-13T07:29:53;19.80;99.90
17128;DHT22;8679;50.842;4.322;2023-10-13T07:32:32;19.90;99.90
17128;DHT22;8679;50.842;4.322;2023-10-13T07:34:59;19.90;99.90
17128;DHT22;8679;50.842;4.322;2023-10-13T07:37:35;19.90;99.90
17128;DHT22;8679;50.842;4.322;2023-10-13T07:40:01;20.00;99.90
17128;DHT22;8679;50.842;4.322;2023-10-13T07:42:26;20.00;99.90
17128;DHT22;8679;50.842;4.322;2023-10-13T07:45:05;20.00;99.90
17128;DHT22;8679;50.842;4.322;2023-10-13T07:47:31;20.10;99.90
17128;DHT22;8679;50.842;4.322;2023-10-13T07:49:59;20.10;99.90
17128;DHT22;8679;50.842;4.322;2023-10-13T07:52:24;20.20;99.90
17128;DHT22;8679;50.842;4.322;2023-10-13T07:55:01;20.20;99.90
17128;DHT22;8679;50.842;4.322;2023-10-13T07:57:47;20.30;99.90
17128;DHT22;8679;50.842;4.322;2023-10-13T08:00:20;20.30;99.90
17128;DHT22;8679;50.842;4.322;2023-10-13T08:03:04;20.40;99.90
17128;DHT22;8679;50.842;4.322;2023-10-13T08:05:45;20.40;99.90
17128;DHT22;8679;50.842;4.322;2023-10-13T08:08:35;20.50;99.90
17128;DHT22;8679;50.842;4.322;2023-10-13T08:11:08;20.50;99.90
17128;DHT22;8679;50.842;4.322;2023-10-13T08:13:41;20.50;99.90
17128;DHT22;8679;50.842;4.322;2023-10-13T08:16:14;20.50;99.90
17128;DHT22;8679;50.842;4.322;2023-10-13T08:18:50;20.50;99.90
17128;DHT22;8679;50.842;4.322;2023-10-13T08:21:17;20.60;99.90
17128;DHT22;8679;50.842;4.322;2023-10-13T08:23:43;20.60;99.90
17128;DHT22;8679;50.842;4.322;2023-10-13T08:26:22;20.60;99.90
17128;DHT22;8679;50.842;4.322;2023-10-13T08:29:06;20.60;99.90
17128;DHT22;8679;50.842;4.322;2023-10-13T08:31:51;20.60;99.90
17128;DHT22;8679;50.842;4.322;2023-10-13T08:34:36;20.70;99.90
17128;DHT22;8679;50.842;4.322;2023-10-13T08:37:08;20.70;99.90
17128;DHT22;8679;50.842;4.322;2023-10-13T08:39:58;20.70;99.90
17128;DHT22;8679;50.842;4.322;2023-10-13T08:42:32;20.80;99.90
17128;DHT22;8679;50.842;4.322;2023-10-13T08:45:09;20.80;99.90
17128;DHT22;8679;50.842;4.322;2023-10-13T08:47:57;20.80;99.90
17128;DHT22;8679;50.842;4.322;2023-10-13T08:50:49;20.90;99.90
17128;DHT22;8679;50.842;4.322;2023-10-13T08:53:21;20.90;99.90
17128;DHT22;8679;50.842;4.322;2023-10-13T08:56:07;21.00;99.90
17128;DHT22;8679;50.842;4.322;2023-10-13T08:58:34;21.00;99.90
17128;DHT22;8679;50.842;4.322;2023-10-13T09:01:35;21.00;99.90
17128;DHT22;8679;50.842;4.322;2023-10-13T09:04:25;21.00;99.90
17128;DHT22;8679;50.842;4.322;2023-10-13T09:07:03;21.10;99.90
17128;DHT22;8679;50.842;4.322;2023-10-13T09:12:29;21.10;99.90
17128;DHT22;8679;50.842;4.322;2023-10-13T09:14:59;21.00;99.90
17128;DHT22;8679;50.842;4.322;2023-10-13T09:17:31;21.10;99.90
17128;DHT22;8679;50.842;4.322;2023-10-13T09:20:01;21.10;99.90
17128;DHT22;8679;50.842;4.322;2023-10-13T09:22:59;21.10;99.90
17128;DHT22;8679;50.842;4.322;2023-10-13T09:25:38;21.20;99.90
17128;DHT22;8679;50.842;4.322;2023-10-13T09:28:14;21.20;99.90
17128;DHT22;8679;50.842;4.322;2023-10-13T09:30:55;21.20;99.90
17128;DHT22;8679;50.842;4.322;2023-10-13T09:33:29;21.20;99.90
17128;DHT22;8679;50.842;4.322;2023-10-13T09:36:16;21.30;99.90
17128;DHT22;8679;50.842;4.322;2023-10-13T09:38:43;21.30;99.90
17128;DHT22;8679;50.842;4.322;2023-10-13T09:41:14;21.30;99.90
17128;DHT22;8679;50.842;4.322;2023-10-13T09:43:52;21.40;99.90
17128;DHT22;8679;50.842;4.322;2023-10-13T09:46:21;21.40;99.90
17128;DHT22;8679;50.842;4.322;2023-10-13T09:48:58;21.50;99.90
17128;DHT22;8679;50.842;4.322;2023-10-13T09:51:31;21.50;99.90
17128;DHT22;8679;50.842;4.322;2023-10-13T09:54:20;21.50;99.90
17128;DHT22;8679;50.842;4.322;2023-10-13T09:57:00;21.60;99.90
17128;DHT22;8679;50.842;4.322;2023-10-13T10:00:02;21.60;99.90
17128;DHT22;8679;50.842;4.322;2023-10-13T10:02:34;21.60;99.90
17128;DHT22;8679;50.842;4.322;2023-10-13T10:05:00;21.70;99.90
17128;DHT22;8679;50.842;4.322;2023-10-13T10:07:57;21.70;99.90
17128;DHT22;8679;50.842;4.322;2023-10-13T10:13:52;21.80;99.90
17128;DHT22;8679;50.842;4.322;2023-10-13T10:16:37;21.90;99.90
17128;DHT22;8679;50.842;4.322;2023-10-13T10:19:07;21.90;99.90
17128;DHT22;8679;50.842;4.322;2023-10-13T10:21:36;22.00;99.90
17128;DHT22;8679;50.842;4.322;2023-10-13T10:24:13;22.00;99.90
17128;DHT22;8679;50.842;4.322;2023-10-13T10:26:50;22.10;99.90
17128;DHT22;8679;50.842;4.322;2023-10-13T10:29:17;22.10;99.90
17128;DHT22;8679;50.842;4.322;2023-10-13T10:31:43;22.10;99.90
17128;DHT22;8679;50.842;4.322;2023-10-13T10:34:20;22.10;99.90
17128;DHT22;8679;50.842;4.322;2023-10-13T10:36:53;22.20;99.90
17128;DHT22;8679;50.842;4.322;2023-10-13T10:39:19;22.30;99.90
17128;DHT22;8679;50.842;4.322;2023-10-13T10:41:45;22.30;99.90
17128;DHT22;8679;50.842;4.322;2023-10-13T10:46:49;22.50;99.90
17128;DHT22;8679;50.842;4.322;2023-10-13T10:49:23;22.60;99.90
17128;DHT22;8679;50.842;4.322;2023-10-13T10:51:59;22.60;99.90
17128;DHT22;8679;50.842;4.322;2023-10-13T10:54:27;22.70;99.90
17128;DHT22;8679;50.842;4.322;2023-10-13T10:56:58;22.70;99.90
17128;DHT22;8679;50.842;4.322;2023-10-13T10:59:36;22.80;99.90
17128;DHT22;8679;50.842;4.322;2023-10-13T11:02:06;22.90;99.90
17128;DHT22;8679;50.842;4.322;2023-10-13T11:04:32;22.90;99.90
17128;DHT22;8679;50.842;4.322;2023-10-13T11:07:07;23.00;99.90
17128;DHT22;8679;50.842;4.322;2023-10-13T11:09:35;23.10;99.90
17128;DHT22;8679;50.842;4.322;2023-10-13T11:12:19;23.20;99.90
17128;DHT22;8679;50.842;4.322;2023-10-13T11:15:08;23.30;99.90
17128;DHT22;8679;50.842;4.322;2023-10-13T11:17:51;23.30;99.90
17128;DHT22;8679;50.842;4.322;2023-10-13T11:20:20;23.30;99.90
17128;DHT22;8679;50.842;4.322;2023-10-13T11:22:59;23.30;99.90
17128;DHT22;8679;50.842;4.322;2023-10-13T11:25:31;23.30;99.90
17128;DHT22;8679;50.842;4.322;2023-10-13T11:28:14;23.40;99.90
17128;DHT22;8679;50.842;4.322;2023-10-13T11:30:45;23.50;99.90
17128;DHT22;8679;50.842;4.322;2023-10-13T11:33:15;23.50;99.90
17128;DHT22;8679;50.842;4.322;2023-10-13T11:35:49;23.50;99.90
17128;DHT22;8679;50.842;4.322;2023-10-13T11:43:34;23.60;99.90
17128;DHT22;8679;50.842;4.322;2023-10-13T11:46:19;23.70;99.90
17128;DHT22;8679;50.842;4.322;2023-10-13T11:49:09;23.80;99.90
17128;DHT22;8679;50.842;4.322;2023-10-13T11:51:41;23.90;99.90
17128;DHT22;8679;50.842;4.322;2023-10-13T11:56:40;23.90;99.90
17128;DHT22;8679;50.842;4.322;2023-10-13T11:59:05;23.90;99.90
17128;DHT22;8679;50.842;4.322;2023-10-13T12:01:34;23.80;99.90
17128;DHT22;8679;50.842;4.322;2023-10-13T12:04:18;23.70;99.90
17128;DHT22;8679;50.842;4.322;2023-10-13T12:07:09;23.60;99.90
17128;DHT22;8679;50.842;4.322;2023-10-13T12:09:50;23.60;99.90
17128;DHT22;8679;50.842;4.322;2023-10-13T12:12:23;23.50;99.90
17128;DHT22;8679;50.842;4.322;2023-10-13T12:14:49;23.50;99.90
17128;DHT22;8679;50.842;4.322;2023-10-13T12:17:29;23.40;99.90
17128;DHT22;8679;50.842;4.322;2023-10-13T12:20:00;23.30;99.90
17128;DHT22;8679;50.842;4.322;2023-10-13T12:22:30;23.30;99.90
17128;DHT22;8679;50.842;4.322;2023-10-13T12:25:05;23.20;99.90
17128;DHT22;8679;50.842;4.322;2023-10-13T12:27:44;23.10;99.90
17128;DHT22;8679;50.842;4.322;2023-10-13T12:30:14;23.10;99.90
17128;DHT22;8679;50.842;4.322;2023-10-13T12:32:50;23.10;99.90
17128;DHT22;8679;50.842;4.322;2023-10-13T12:35:25;23.10;99.90
17128;DHT22;8679;50.842;4.322;2023-10-13T12:38:01;23.00;99.90
17128;DHT22;8679;50.842;4.322;2023-10-13T12:40:52;23.10;99.90
17128;DHT22;8679;50.842;4.322;2023-10-13T12:43:36;23.10;99.90
17128;DHT22;8679;50.842;4.322;2023-10-13T12:46:20;23.10;99.90
17128;DHT22;8679;50.842;4.322;2023-10-13T12:49:04;23.10;99.90
17128;DHT22;8679;50.842;4.322;2023-10-13T12:51:41;23.10;99.90
17128;DHT22;8679;50.842;4.322;2023-10-13T12:54:16;23.10;99.90
17128;DHT22;8679;50.842;4.322;2023-10-13T12:57:00;23.10;99.90
17128;DHT22;8679;50.842;4.322;2023-10-13T12:59:26;23.20;99.90
17128;DHT22;8679;50.842;4.322;2023-10-13T13:01:52;23.20;99.90
17128;DHT22;8679;50.842;4.322;2023-10-13T13:04:19;23.20;99.90
17128;DHT22;8679;50.842;4.322;2023-10-13T13:06:48;23.20;99.90
17128;DHT22;8679;50.842;4.322;2023-10-13T13:09:14;23.20;99.90
17128;DHT22;8679;50.842;4.322;2023-10-13T13:11:40;23.30;99.90
17128;DHT22;8679;50.842;4.322;2023-10-13T13:14:06;23.30;99.90
17128;DHT22;8679;50.842;4.322;2023-10-13T13:16:36;23.30;99.90
17128;DHT22;8679;50.842;4.322;2023-10-13T13:19:04;23.40;99.90
17128;DHT22;8679;50.842;4.322;2023-10-13T13:21:38;23.40;99.90
17128;DHT22;8679;50.842;4.322;2023-10-13T13:24:05;23.30;99.90
17128;DHT22;8679;50.842;4.322;2023-10-13T13:26:37;23.30;99.90
17128;DHT22;8679;50.842;4.322;2023-10-13T13:29:06;23.20;99.90
17128;DHT22;8679;50.842;4.322;2023-10-13T13:31:35;23.20;99.90
17128;DHT22;8679;50.842;4.322;2023-10-13T13:34:10;23.20;99.90
17128;DHT22;8679;50.842;4.322;2023-10-13T13:36:38;23.20;99.90
17128;DHT22;8679;50.842;4.322;2023-10-13T13:39:06;23.20;99.90
17128;DHT22;8679;50.842;4.322;2023-10-13T13:41:32;23.40;99.90
17128;DHT22;8679;50.842;4.322;2023-10-13T13:43:58;23.60;99.90
17128;DHT22;8679;50.842;4.322;2023-10-13T13:46:38;23.60;99.90
17128;DHT22;8679;50.842;4.322;2023-10-13T13:49:07;23.70;99.90
17128;DHT22;8679;50.842;4.322;2023-10-13T13:51:39;23.70;99.90
17128;DHT22;8679;50.842;4.322;2023-10-13T13:54:05;23.70;99.90
17128;DHT22;8679;50.842;4.322;2023-10-13T13:56:33;23.70;99.90
17128;DHT22;8679;50.842;4.322;2023-10-13T13:59:04;23.50;99.90
17128;DHT22;8679;50.842;4.322;2023-10-13T14:01:33;23.30;99.90
17128;DHT22;8679;50.842;4.322;2023-10-13T14:04:03;23.20;99.90
17128;DHT22;8679;50.842;4.322;2023-10-13T14:06:32;23.20;99.90
17128;DHT22;8679;50.842;4.322;2023-10-13T14:08:59;23.10;99.90
17128;DHT22;8679;50.842;4.322;2023-10-13T14:11:30;23.10;99.90
17128;DHT22;8679;50.842;4.322;2023-10-13T14:16:52;23.10;99.90
17128;DHT22;8679;50.842;4.322;2023-10-13T14:19:20;23.10;99.90
17128;DHT22;8679;50.842;4.322;2023-10-13T14:21:58;23.20;99.90
17128;DHT22;8679;50.842;4.322;2023-10-13T14:24:25;23.10;99.90
17128;DHT22;8679;50.842;4.322;2023-10-13T14:26:55;23.00;99.90
17128;DHT22;8679;50.842;4.322;2023-10-13T14:29:20;23.00;99.90
17128;DHT22;8679;50.842;4.322;2023-10-13T14:31:46;23.00;99.90
17128;DHT22;8679;50.842;4.322;2023-10-13T14:34:14;22.90;99.90
17128;DHT22;8679;50.842;4.322;2023-10-13T14:36:40;22.90;99.90
17128;DHT22;8679;50.842;4.322;2023-10-13T14:39:07;22.80;99.90
17128;DHT22;8679;50.842;4.322;2023-10-13T14:41:38;22.80;99.90
17128;DHT22;8679;50.842;4.322;2023-10-13T14:44:04;22.70;99.90
17128;DHT22;8679;50.842;4.322;2023-10-13T14:46:34;22.60;99.90
17128;DHT22;8679;50.842;4.322;2023-10-13T14:49:05;22.60;99.90
17128;DHT22;8679;50.842;4.322;2023-10-13T14:51:30;22.60;99.90
17128;DHT22;8679;50.842;4.322;2023-10-13T14:53:57;22.60;99.90
17128;DHT22;8679;50.842;4.322;2023-10-13T14:56:25;22.50;99.90
17128;DHT22;8679;50.842;4.322;2023-10-13T14:58:53;22.50;99.90
17128;DHT22;8679;50.842;4.322;2023-10-13T15:01:21;22.50;99.90
17128;DHT22;8679;50.842;4.322;2023-10-13T15:03:48;22.40;99.90
17128;DHT22;8679;50.842;4.322;2023-10-13T15:06:19;22.30;99.90
17128;DHT22;8679;50.842;4.322;2023-10-13T15:08:56;22.30;99.90
17128;DHT22;8679;50.842;4.322;2023-10-13T15:11:22;22.30;99.90
17128;DHT22;8679;50.842;4.322;2023-10-13T15:13:54;22.20;99.90
17128;DHT22;8679;50.842;4.322;2023-10-13T15:16:25;22.20;99.90
17128;DHT22;8679;50.842;4.322;2023-10-13T15:18:52;22.20;99.90
17128;DHT22;8679;50.842;4.322;2023-10-13T15:21:23;22.20;99.90
17128;DHT22;8679;50.842;4.322;2023-10-13T15:23:54;22.20;99.90
17128;DHT22;8679;50.842;4.322;2023-10-13T15:26:27;22.20;99.90
17128;DHT22;8679;50.842;4.322;2023-10-13T15:28:54;22.10;99.90
17128;DHT22;8679;50.842;4.322;2023-10-13T15:31:23;22.00;99.90
17128;DHT22;8679;50.842;4.322;2023-10-13T15:33:55;22.00;99.90
17128;DHT22;8679;50.842;4.322;2023-10-13T15:36:24;21.90;99.90
17128;DHT22;8679;50.842;4.322;2023-10-13T15:38:50;21.90;99.90
17128;DHT22;8679;50.842;4.322;2023-10-13T15:41:24;21.90;99.90
17128;DHT22;8679;50.842;4.322;2023-10-13T15:43:50;21.90;99.90
17128;DHT22;8679;50.842;4.322;2023-10-13T15:46:18;21.90;99.90
17128;DHT22;8679;50.842;4.322;2023-10-13T15:48:47;21.80;99.90
17128;DHT22;8679;50.842;4.322;2023-10-13T15:51:13;21.80;99.90
17128;DHT22;8679;50.842;4.322;2023-10-13T15:53:39;21.90;99.90
17128;DHT22;8679;50.842;4.322;2023-10-13T15:56:05;21.90;99.90
17128;DHT22;8679;50.842;4.322;2023-10-13T16:01:09;21.80;99.90
17128;DHT22;8679;50.842;4.322;2023-10-13T16:03:41;21.80;99.90
17128;DHT22;8679;50.842;4.322;2023-10-13T16:06:15;21.80;99.90
17128;DHT22;8679;50.842;4.322;2023-10-13T16:08:42;21.80;99.90
17128;DHT22;8679;50.842;4.322;2023-10-13T16:11:12;21.80;99.90
17128;DHT22;8679;50.842;4.322;2023-10-13T16:13:45;21.90;99.90
17128;DHT22;8679;50.842;4.322;2023-10-13T16:16:29;21.80;99.90
17128;DHT22;8679;50.842;4.322;2023-10-13T16:18:55;21.70;99.90
17128;DHT22;8679;50.842;4.322;2023-10-13T16:21:20;21.60;99.90
17128;DHT22;8679;50.842;4.322;2023-10-13T16:23:47;21.60;99.90
17128;DHT22;8679;50.842;4.322;2023-10-13T16:26:22;21.40;99.90
17128;DHT22;8679;50.842;4.322;2023-10-13T16:28:51;21.40;99.90
17128;DHT22;8679;50.842;4.322;2023-10-13T16:31:23;21.30;99.90
17128;DHT22;8679;50.842;4.322;2023-10-13T16:36:15;20.90;99.90
17128;DHT22;8679;50.842;4.322;2023-10-13T16:38:41;20.60;99.90
17128;DHT22;8679;50.842;4.322;2023-10-13T16:41:11;20.40;99.90
17128;DHT22;8679;50.842;4.322;2023-10-13T16:43:38;20.20;99.90
17128;DHT22;8679;50.842;4.322;2023-10-13T16:46:09;20.20;99.90
17128;DHT22;8679;50.842;4.322;2023-10-13T16:48:40;20.20;99.90
17128;DHT22;8679;50.842;4.322;2023-10-13T16:51:07;20.20;99.90
17128;DHT22;8679;50.842;4.322;2023-10-13T16:53:39;20.20;99.90
17128;DHT22;8679;50.842;4.322;2023-10-13T16:56:06;20.20;99.90
17128;DHT22;8679;50.842;4.322;2023-10-13T16:58:33;20.30;99.90